sensor_id;sensor_type;location;lat;lon;timestamp;pressure;altitude;pressure_sealevel;temperature;humidity
21300;BME280;10809;49.476;11.016;2023-08-30T00:00:59;97610.13;;;14.45;69.67
21300;BME280;10809;49.476;11.016;2023-08-30T00:03:30;97607.69;;;14.42;69.73
21300;BME280;10809;49.476;11.016;2023-08-30T00:06:04;97607.06;;;14.38;69.83
21300;BME280;10809;49.476;11.016;2023-08-30T00:08:35;97608.19;;;14.36;69.74
21300;BME280;10809;49.476;11.016;2023-08-30T00:11:05;97599.47;;;14.34;69.82
21300;BME280;10809;49.476;11.016;2023-08-30T00:13:36;97611.22;;;14.31;69.89
21300;BME280;10809;49.476;11.016;2023-08-30T00:16:06;97612.31;;;14.29;69.89
21300;BME280;10809;49.476;11.016;2023-08-30T00:18:37;97616.81;;;14.28;69.93
21300;BME280;10809;49.476;11.016;2023-08-30T00:21:07;97610.88;;;14.25;69.76
21300;BME280;10809;49.476;11.016;2023-08-30T00:23:38;97611.84;;;14.24;69.75
21300;BME280;10809;49.476;11.016;2023-08-30T00:26:08;97604.94;;;14.21;69.77
21300;BME280;10809;49.476;11.016;2023-08-30T00:28:39;97604.25;;;14.19;69.76
21300;BME280;10809;49.476;11.016;2023-08-30T00:31:09;97609.69;;;14.18;69.85
21300;BME280;10809;49.476;11.016;2023-08-30T00:33:40;97602.78;;;14.15;69.80
21300;BME280;10809;49.476;11.016;2023-08-30T00:36:10;97602.91;;;14.14;69.84
21300;BME280;10809;49.476;11.016;2023-08-30T00:38:41;97605.69;;;14.12;69.94
21300;BME280;10809;49.476;11.016;2023-08-30T00:41:11;97598.69;;;14.11;69.96
21300;BME280;10809;49.476;11.016;2023-08-30T00:43:42;97604.25;;;14.08;69.81
21300;BME280;10809;49.476;11.016;2023-08-30T00:46:13;97601.72;;;14.07;69.85
21300;BME280;10809;49.476;11.016;2023-08-30T00:48:44;97606.19;;;14.06;69.92
21300;BME280;10809;49.476;11.016;2023-08-30T00:51:15;97611.63;;;14.05;70.07
21300;BME280;10809;49.476;11.016;2023-08-30T00:53:54;97613.59;;;14.03;70.03
21300;BME280;10809;49.476;11.016;2023-08-30T00:56:29;97610.94;;;14.03;69.86
21300;BME280;10809;49.476;11.016;2023-08-30T00:59:03;97604.00;;;14.00;70.21
21300;BME280;10809;49.476;11.016;2023-08-30T01:01:33;97598.81;;;13.99;70.02
21300;BME280;10809;49.476;11.016;2023-08-30T01:04:04;97597.13;;;13.98;69.90
21300;BME280;10809;49.476;11.016;2023-08-30T01:06:34;97599.06;;;13.96;69.91
21300;BME280;10809;49.476;11.016;2023-08-30T01:09:06;97603.56;;;13.95;69.93
21300;BME280;10809;49.476;11.016;2023-08-30T01:14:34;97597.63;;;13.92;69.94
21300;BME280;10809;49.476;11.016;2023-08-30T01:17:10;97602.22;;;13.90;70.03
21300;BME280;10809;49.476;11.016;2023-08-30T01:22:59;97595.34;;;13.87;70.03
21300;BME280;10809;49.476;11.016;2023-08-30T01:26:09;97601.59;;;13.86;70.00
21300;BME280;10809;49.476;11.016;2023-08-30T01:28:44;97602.59;;;13.85;69.97
21300;BME280;10809;49.476;11.016;2023-08-30T01:31:15;97602.59;;;13.85;70.03
21300;BME280;10809;49.476;11.016;2023-08-30T01:33:47;97601.84;;;13.83;70.05
21300;BME280;10809;49.476;11.016;2023-08-30T01:36:24;97602.72;;;13.84;70.20
21300;BME280;10809;49.476;11.016;2023-08-30T01:38:57;97607.16;;;13.83;70.21
21300;BME280;10809;49.476;11.016;2023-08-30T01:41:29;97605.38;;;13.84;70.31
21300;BME280;10809;49.476;11.016;2023-08-30T01:44:00;97599.19;;;13.83;70.39
21300;BME280;10809;49.476;11.016;2023-08-30T01:46:35;97599.19;;;13.83;70.17
21300;BME280;10809;49.476;11.016;2023-08-30T01:49:07;97604.50;;;13.83;70.30
21300;BME280;10809;49.476;11.016;2023-08-30T01:51:38;97607.06;;;13.85;70.35
21300;BME280;10809;49.476;11.016;2023-08-30T01:54:13;97604.50;;;13.83;70.34
21300;BME280;10809;49.476;11.016;2023-08-30T01:56:46;97605.38;;;13.84;70.36
21300;BME280;10809;49.476;11.016;2023-08-30T01:59:17;97608.03;;;13.84;70.40
21300;BME280;10809;49.476;11.016;2023-08-30T02:01:47;97608.88;;;13.84;70.40
21300;BME280;10809;49.476;11.016;2023-08-30T02:04:18;97608.88;;;13.84;70.52
21300;BME280;10809;49.476;11.016;2023-08-30T02:09:46;97610.69;;;13.84;70.54
21300;BME280;10809;49.476;11.016;2023-08-30T02:12:24;97601.72;;;13.85;70.58
21300;BME280;10809;49.476;11.016;2023-08-30T02:14:57;97605.25;;;13.85;70.43
21300;BME280;10809;49.476;11.016;2023-08-30T02:17:29;97612.25;;;13.86;70.44
21300;BME280;10809;49.476;11.016;2023-08-30T02:20:00;97603.44;;;13.86;70.53
21300;BME280;10809;49.476;11.016;2023-08-30T02:22:37;97604.25;;;13.86;70.53
21300;BME280;10809;49.476;11.016;2023-08-30T02:25:08;97598.94;;;13.86;70.53
21300;BME280;10809;49.476;11.016;2023-08-30T02:27:38;97592.69;;;13.87;70.53
21300;BME280;10809;49.476;11.016;2023-08-30T02:30:09;97594.47;;;13.87;70.61
21300;BME280;10809;49.476;11.016;2023-08-30T02:32:40;97581.28;;;13.85;70.54
21300;BME280;10809;49.476;11.016;2023-08-30T02:35:10;97590.97;;;13.86;70.66
21300;BME280;10809;49.476;11.016;2023-08-30T02:37:42;97598.94;;;13.86;70.66
21300;BME280;10809;49.476;11.016;2023-08-30T02:40:13;97598.13;;;13.86;70.64
21300;BME280;10809;49.476;11.016;2023-08-30T02:42:44;97593.63;;;13.86;70.37
21300;BME280;10809;49.476;11.016;2023-08-30T02:45:14;97582.16;;;13.86;70.60
21300;BME280;10809;49.476;11.016;2023-08-30T02:47:45;97585.75;;;13.85;70.66
21300;BME280;10809;49.476;11.016;2023-08-30T02:50:16;97584.81;;;13.86;70.49
21300;BME280;10809;49.476;11.016;2023-08-30T02:52:50;97588.31;;;13.86;70.51
21300;BME280;10809;49.476;11.016;2023-08-30T02:55:20;97586.63;;;13.85;70.52
21300;BME280;10809;49.476;11.016;2023-08-30T02:57:51;97592.78;;;13.86;70.56
21300;BME280;10809;49.476;11.016;2023-08-30T03:00:23;97591.09;;;13.85;70.62
21300;BME280;10809;49.476;11.016;2023-08-30T03:02:54;97590.25;;;13.84;70.40
21300;BME280;10809;49.476;11.016;2023-08-30T03:05:24;97593.03;;;13.83;70.49
21300;BME280;10809;49.476;11.016;2023-08-30T03:07:58;97594.84;;;13.82;70.60
21300;BME280;10809;49.476;11.016;2023-08-30T03:10:28;97594.00;;;13.82;70.37
21300;BME280;10809;49.476;11.016;2023-08-30T03:12:59;97595.81;;;13.81;70.41
21300;BME280;10809;49.476;11.016;2023-08-30T03:15:33;97596.78;;;13.80;70.69
21300;BME280;10809;49.476;11.016;2023-08-30T03:18:04;97596.91;;;13.79;70.49
21300;BME280;10809;49.476;11.016;2023-08-30T03:20:35;97588.09;;;13.78;70.34
21300;BME280;10809;49.476;11.016;2023-08-30T03:23:05;97586.50;;;13.76;70.31
21300;BME280;10809;49.476;11.016;2023-08-30T03:25:37;97589.16;;;13.76;70.21
21300;BME280;10809;49.476;11.016;2023-08-30T03:28:12;97583.97;;;13.74;70.37
21300;BME280;10809;49.476;11.016;2023-08-30T03:30:45;97590.25;;;13.73;70.43
21300;BME280;10809;49.476;11.016;2023-08-30T03:33:16;97596.56;;;13.72;70.54
21300;BME280;10809;49.476;11.016;2023-08-30T03:35:47;97602.00;;;13.71;70.66
21300;BME280;10809;49.476;11.016;2023-08-30T03:38:20;97593.16;;;13.70;70.62
21300;BME280;10809;49.476;11.016;2023-08-30T03:40:53;97603.81;;;13.70;70.62
21300;BME280;10809;49.476;11.016;2023-08-30T03:43:24;97596.69;;;13.71;70.73
21300;BME280;10809;49.476;11.016;2023-08-30T03:45:54;97590.50;;;13.70;70.52
21300;BME280;10809;49.476;11.016;2023-08-30T03:48:26;97595.81;;;13.70;70.87
21300;BME280;10809;49.476;11.016;2023-08-30T03:50:57;97593.16;;;13.70;70.82
21300;BME280;10809;49.476;11.016;2023-08-30T03:53:27;97594.84;;;13.71;70.86
21300;BME280;10809;49.476;11.016;2023-08-30T03:56:00;97597.50;;;13.71;70.89
21300;BME280;10809;49.476;11.016;2023-08-30T03:58:31;97600.03;;;13.73;70.80
21300;BME280;10809;49.476;11.016;2023-08-30T04:01:01;97600.03;;;13.73;70.85
21300;BME280;10809;49.476;11.016;2023-08-30T04:03:32;97598.25;;;13.73;70.83
21300;BME280;10809;49.476;11.016;2023-08-30T04:06:02;97606.22;;;13.73;70.70
21300;BME280;10809;49.476;11.016;2023-08-30T04:08:33;97588.69;;;13.71;70.61
21300;BME280;10809;49.476;11.016;2023-08-30T04:11:03;97597.50;;;13.71;70.66
21300;BME280;10809;49.476;11.016;2023-08-30T04:13:34;97591.38;;;13.71;70.63
21300;BME280;10809;49.476;11.016;2023-08-30T04:16:07;97594.97;;;13.70;70.79
21300;BME280;10809;49.476;11.016;2023-08-30T04:18:37;97597.75;;;13.68;70.76
21300;BME280;10809;49.476;11.016;2023-08-30T04:21:08;97610.09;;;13.69;70.83
21300;BME280;10809;49.476;11.016;2023-08-30T04:23:39;97612.88;;;13.68;70.40
21300;BME280;10809;49.476;11.016;2023-08-30T04:26:09;97619.03;;;13.68;70.78
21300;BME280;10809;49.476;11.016;2023-08-30T04:28:40;97615.56;;;13.68;70.83
21300;BME280;10809;49.476;11.016;2023-08-30T04:31:10;97612.88;;;13.68;70.88
21300;BME280;10809;49.476;11.016;2023-08-30T04:33:41;97608.50;;;13.67;70.85
21300;BME280;10809;49.476;11.016;2023-08-30T04:36:11;97610.34;;;13.66;71.02
21300;BME280;10809;49.476;11.016;2023-08-30T04:38:42;97613.84;;;13.67;71.02
21300;BME280;10809;49.476;11.016;2023-08-30T04:41:13;97611.19;;;13.67;70.95
21300;BME280;10809;49.476;11.016;2023-08-30T04:43:43;97606.72;;;13.67;71.20
21300;BME280;10809;49.476;11.016;2023-08-30T04:46:14;97607.69;;;13.66;71.07
21300;BME280;10809;49.476;11.016;2023-08-30T04:48:45;97617.34;;;13.67;71.14
21300;BME280;10809;49.476;11.016;2023-08-30T04:51:16;97616.38;;;13.68;71.07
21300;BME280;10809;49.476;11.016;2023-08-30T04:53:47;97611.06;;;13.68;71.09
21300;BME280;10809;49.476;11.016;2023-08-30T04:56:18;97611.91;;;13.69;71.19
21300;BME280;10809;49.476;11.016;2023-08-30T04:58:48;97612.66;;;13.71;71.28
21300;BME280;10809;49.476;11.016;2023-08-30T05:01:21;97609.97;;;13.71;71.23
21300;BME280;10809;49.476;11.016;2023-08-30T05:03:55;97607.19;;;13.72;71.21
21300;BME280;10809;49.476;11.016;2023-08-30T05:06:27;97608.03;;;13.73;71.39
21300;BME280;10809;49.476;11.016;2023-08-30T05:08:58;97606.97;;;13.75;71.32
21300;BME280;10809;49.476;11.016;2023-08-30T05:11:28;97608.63;;;13.76;71.39
21300;BME280;10809;49.476;11.016;2023-08-30T05:14:00;97607.66;;;13.77;71.54
21300;BME280;10809;49.476;11.016;2023-08-30T05:16:30;97608.41;;;13.79;71.40
21300;BME280;10809;49.476;11.016;2023-08-30T05:19:04;97608.28;;;13.81;71.57
21300;BME280;10809;49.476;11.016;2023-08-30T05:21:34;97610.69;;;13.84;71.63
21300;BME280;10809;49.476;11.016;2023-08-30T05:24:07;97607.91;;;13.85;71.56
21300;BME280;10809;49.476;11.016;2023-08-30T05:26:37;97605.97;;;13.87;71.62
21300;BME280;10809;49.476;11.016;2023-08-30T05:29:08;97603.19;;;13.89;71.52
21300;BME280;10809;49.476;11.016;2023-08-30T05:31:38;97592.44;;;13.90;71.68
21300;BME280;10809;49.476;11.016;2023-08-30T05:34:35;97586.97;;;13.92;71.65
21300;BME280;10809;49.476;11.016;2023-08-30T05:37:31;97586.72;;;13.95;71.58
21300;BME280;10809;49.476;11.016;2023-08-30T05:40:07;97587.59;;;13.95;71.60
21300;BME280;10809;49.476;11.016;2023-08-30T05:42:38;97606.91;;;13.97;71.57
21300;BME280;10809;49.476;11.016;2023-08-30T05:45:09;97597.00;;;13.99;71.71
21300;BME280;10809;49.476;11.016;2023-08-30T05:47:40;97594.22;;;14.01;71.79
21300;BME280;10809;49.476;11.016;2023-08-30T05:50:10;97587.91;;;14.02;71.88
21300;BME280;10809;49.476;11.016;2023-08-30T05:52:41;97594.84;;;14.04;71.97
21300;BME280;10809;49.476;11.016;2023-08-30T05:55:13;97596.38;;;14.07;71.95
21300;BME280;10809;49.476;11.016;2023-08-30T05:57:44;97597.00;;;14.10;71.88
21300;BME280;10809;49.476;11.016;2023-08-30T06:00:14;97599.41;;;14.13;71.94
21300;BME280;10809;49.476;11.016;2023-08-30T06:02:45;97600.09;;;14.15;71.83
21300;BME280;10809;49.476;11.016;2023-08-30T06:05:16;97597.31;;;14.17;71.89
21300;BME280;10809;49.476;11.016;2023-08-30T06:07:47;97604.25;;;14.19;71.94
21300;BME280;10809;49.476;11.016;2023-08-30T06:10:17;97604.94;;;14.21;71.90
21300;BME280;10809;49.476;11.016;2023-08-30T06:12:48;97603.88;;;14.24;72.03
21300;BME280;10809;49.476;11.016;2023-08-30T06:15:18;97597.44;;;14.26;72.00
21300;BME280;10809;49.476;11.016;2023-08-30T06:17:49;97603.50;;;14.28;71.93
21300;BME280;10809;49.476;11.016;2023-08-30T06:20:20;97597.06;;;14.31;72.20
21300;BME280;10809;49.476;11.016;2023-08-30T06:22:50;97596.94;;;14.32;72.16
21300;BME280;10809;49.476;11.016;2023-08-30T06:25:21;97604.66;;;14.35;72.13
21300;BME280;10809;49.476;11.016;2023-08-30T06:27:58;97604.41;;;14.38;72.01
21300;BME280;10809;49.476;11.016;2023-08-30T06:30:29;97602.47;;;14.40;72.05
21300;BME280;10809;49.476;11.016;2023-08-30T06:33:00;97608.41;;;14.44;72.04
21300;BME280;10809;49.476;11.016;2023-08-30T06:35:36;97604.53;;;14.48;72.10
21300;BME280;10809;49.476;11.016;2023-08-30T06:38:09;97601.75;;;14.49;72.14
21300;BME280;10809;49.476;11.016;2023-08-30T06:40:46;97614.81;;;14.52;72.01
21300;BME280;10809;49.476;11.016;2023-08-30T06:43:16;97610.09;;;14.56;72.08
21300;BME280;10809;49.476;11.016;2023-08-30T06:45:57;97615.16;;;14.59;71.96
21300;BME280;10809;49.476;11.016;2023-08-30T06:48:28;97603.41;;;14.61;71.93
21300;BME280;10809;49.476;11.016;2023-08-30T06:50:58;97604.94;;;14.64;71.95
21300;BME280;10809;49.476;11.016;2023-08-30T06:53:29;97602.03;;;14.67;71.93
21300;BME280;10809;49.476;11.016;2023-08-30T06:56:00;97603.50;;;14.71;72.13
21300;BME280;10809;49.476;11.016;2023-08-30T06:58:31;97605.03;;;14.73;71.81
21300;BME280;10809;49.476;11.016;2023-08-30T07:01:01;97596.78;;;14.77;71.71
21300;BME280;10809;49.476;11.016;2023-08-30T07:03:33;97595.69;;;14.79;72.12
21300;BME280;10809;49.476;11.016;2023-08-30T07:06:04;97590.09;;;14.82;72.08
21300;BME280;10809;49.476;11.016;2023-08-30T07:08:37;97597.69;;;14.87;72.10
21300;BME280;10809;49.476;11.016;2023-08-30T07:11:08;97592.84;;;14.92;72.31
21300;BME280;10809;49.476;11.016;2023-08-30T07:13:38;97598.63;;;14.97;72.40
21300;BME280;10809;49.476;11.016;2023-08-30T07:16:09;97592.06;;;15.01;72.38
21300;BME280;10809;49.476;11.016;2023-08-30T07:18:39;97589.72;;;15.07;72.53
21300;BME280;10809;49.476;11.016;2023-08-30T07:21:10;97584.72;;;15.14;72.42
21300;BME280;10809;49.476;11.016;2023-08-30T07:23:43;97578.88;;;15.20;72.48
21300;BME280;10809;49.476;11.016;2023-08-30T07:26:14;97590.69;;;15.27;72.42
21300;BME280;10809;49.476;11.016;2023-08-30T07:28:45;97583.00;;;15.33;72.36
21300;BME280;10809;49.476;11.016;2023-08-30T07:31:16;97592.19;;;15.40;72.35
21300;BME280;10809;49.476;11.016;2023-08-30T07:33:48;97588.88;;;15.48;72.50
21300;BME280;10809;49.476;11.016;2023-08-30T07:36:22;97594.25;;;15.57;72.76
21300;BME280;10809;49.476;11.016;2023-08-30T07:38:58;97597.53;;;15.70;73.12
21300;BME280;10809;49.476;11.016;2023-08-30T07:41:29;97589.88;;;15.86;73.17
21300;BME280;10809;49.476;11.016;2023-08-30T07:43:59;97589.38;;;16.02;73.05
21300;BME280;10809;49.476;11.016;2023-08-30T07:46:30;97594.75;;;16.21;73.57
21300;BME280;10809;49.476;11.016;2023-08-30T07:49:00;97594.81;;;16.40;73.57
21300;BME280;10809;49.476;11.016;2023-08-30T07:51:31;97585.69;;;16.62;74.16
21300;BME280;10809;49.476;11.016;2023-08-30T07:54:01;97587.97;;;16.85;74.12
21300;BME280;10809;49.476;11.016;2023-08-30T07:56:32;97592.31;;;17.05;73.29
21300;BME280;10809;49.476;11.016;2023-08-30T07:59:02;97591.59;;;17.22;72.87
21300;BME280;10809;49.476;11.016;2023-08-30T08:01:39;97586.50;;;17.38;72.80
21300;BME280;10809;49.476;11.016;2023-08-30T08:04:09;97587.44;;;17.56;73.11
21300;BME280;10809;49.476;11.016;2023-08-30T08:06:40;97584.81;;;17.74;73.23
21300;BME280;10809;49.476;11.016;2023-08-30T08:09:14;97580.09;;;17.95;73.16
21300;BME280;10809;49.476;11.016;2023-08-30T08:11:45;97584.22;;;18.17;73.27
21300;BME280;10809;49.476;11.016;2023-08-30T08:14:16;97582.81;;;18.40;73.40
21300;BME280;10809;49.476;11.016;2023-08-30T08:16:46;97573.50;;;18.61;72.43
21300;BME280;10809;49.476;11.016;2023-08-30T08:19:16;97565.75;;;18.76;71.22
21300;BME280;10809;49.476;11.016;2023-08-30T08:21:47;97568.53;;;18.84;70.82
21300;BME280;10809;49.476;11.016;2023-08-30T08:24:21;97570.66;;;18.98;71.43
21300;BME280;10809;49.476;11.016;2023-08-30T08:26:54;97572.50;;;19.15;70.96
21300;BME280;10809;49.476;11.016;2023-08-30T08:29:26;97569.06;;;19.30;70.72
21300;BME280;10809;49.476;11.016;2023-08-30T08:31:57;97576.38;;;19.46;70.91
21300;BME280;10809;49.476;11.016;2023-08-30T08:34:27;97571.97;;;19.62;70.36
21300;BME280;10809;49.476;11.016;2023-08-30T08:36:58;97559.47;;;19.79;70.57
21300;BME280;10809;49.476;11.016;2023-08-30T08:39:30;97554.53;;;20.00;70.75
21300;BME280;10809;49.476;11.016;2023-08-30T08:42:01;97554.97;;;20.21;70.34
21300;BME280;10809;49.476;11.016;2023-08-30T08:44:32;97551.00;;;20.41;70.27
21300;BME280;10809;49.476;11.016;2023-08-30T08:47:04;97551.41;;;20.62;69.88
21300;BME280;10809;49.476;11.016;2023-08-30T08:49:35;97547.34;;;20.82;69.08
21300;BME280;10809;49.476;11.016;2023-08-30T08:52:05;97539.34;;;20.98;69.07
21300;BME280;10809;49.476;11.016;2023-08-30T08:54:38;97545.56;;;21.15;68.26
21300;BME280;10809;49.476;11.016;2023-08-30T08:57:09;97537.44;;;21.31;67.68
21300;BME280;10809;49.476;11.016;2023-08-30T08:59:42;97539.59;;;21.43;66.97
21300;BME280;10809;49.476;11.016;2023-08-30T09:02:14;97544.66;;;21.46;64.96
21300;BME280;10809;49.476;11.016;2023-08-30T09:04:45;97544.66;;;21.38;64.32
21300;BME280;10809;49.476;11.016;2023-08-30T09:07:16;97557.47;;;21.20;62.91
21300;BME280;10809;49.476;11.016;2023-08-30T09:09:47;97556.31;;;20.99;62.85
21300;BME280;10809;49.476;11.016;2023-08-30T09:12:18;97561.47;;;20.76;62.65
21300;BME280;10809;49.476;11.016;2023-08-30T09:14:56;97555.91;;;20.54;63.08
21300;BME280;10809;49.476;11.016;2023-08-30T09:17:39;97556.00;;;20.28;62.89
21300;BME280;10809;49.476;11.016;2023-08-30T09:20:11;97561.94;;;20.06;62.45
21300;BME280;10809;49.476;11.016;2023-08-30T09:22:43;97560.53;;;19.86;62.50
21300;BME280;10809;49.476;11.016;2023-08-30T09:25:23;97554.72;;;19.65;62.82
21300;BME280;10809;49.476;11.016;2023-08-30T09:28:01;97563.81;;;19.46;62.85
21300;BME280;10809;49.476;11.016;2023-08-30T09:30:32;97559.16;;;19.31;62.89
21300;BME280;10809;49.476;11.016;2023-08-30T09:33:03;97563.44;;;19.16;63.10
21300;BME280;10809;49.476;11.016;2023-08-30T09:35:43;97562.81;;;19.04;63.55
21300;BME280;10809;49.476;11.016;2023-08-30T09:38:18;97562.63;;;18.98;63.99
21300;BME280;10809;49.476;11.016;2023-08-30T09:40:48;97561.38;;;18.92;64.11
21300;BME280;10809;49.476;11.016;2023-08-30T09:43:20;97561.53;;;18.91;64.26
21300;BME280;10809;49.476;11.016;2023-08-30T09:46:03;97566.22;;;18.89;64.33
21300;BME280;10809;49.476;11.016;2023-08-30T09:48:37;97568.06;;;18.88;63.94
21300;BME280;10809;49.476;11.016;2023-08-30T09:51:08;97563.00;;;18.85;63.62
21300;BME280;10809;49.476;11.016;2023-08-30T09:53:49;97556.13;;;18.83;63.89
21300;BME280;10809;49.476;11.016;2023-08-30T09:56:26;97555.44;;;18.81;63.76
21300;BME280;10809;49.476;11.016;2023-08-30T09:58:58;97555.59;;;18.79;63.65
21300;BME280;10809;49.476;11.016;2023-08-30T10:01:29;97557.41;;;18.79;63.65
21300;BME280;10809;49.476;11.016;2023-08-30T10:04:02;97558.56;;;18.76;63.58
21300;BME280;10809;49.476;11.016;2023-08-30T10:06:35;97548.97;;;18.74;63.49
21300;BME280;10809;49.476;11.016;2023-08-30T10:09:08;97549.13;;;18.72;63.41
21300;BME280;10809;49.476;11.016;2023-08-30T10:11:39;97547.56;;;18.70;63.36
21300;BME280;10809;49.476;11.016;2023-08-30T10:14:13;97543.38;;;18.67;63.49
21300;BME280;10809;49.476;11.016;2023-08-30T10:16:45;97540.84;;;18.66;63.04
21300;BME280;10809;49.476;11.016;2023-08-30T10:19:18;97532.09;;;18.64;62.87
21300;BME280;10809;49.476;11.016;2023-08-30T10:24:28;97542.81;;;18.64;63.43
21300;BME280;10809;49.476;11.016;2023-08-30T10:27:02;97533.66;;;18.66;63.52
21300;BME280;10809;49.476;11.016;2023-08-30T10:29:35;97537.00;;;18.68;63.53
21300;BME280;10809;49.476;11.016;2023-08-30T10:32:07;97525.97;;;18.71;63.74
21300;BME280;10809;49.476;11.016;2023-08-30T10:34:37;97530.06;;;18.75;63.79
21300;BME280;10809;49.476;11.016;2023-08-30T10:37:10;97526.94;;;18.80;63.79
21300;BME280;10809;49.476;11.016;2023-08-30T10:39:41;97533.66;;;18.84;63.44
21300;BME280;10809;49.476;11.016;2023-08-30T10:42:16;97522.78;;;18.85;63.19
21300;BME280;10809;49.476;11.016;2023-08-30T10:45:05;97523.16;;;18.90;63.68
21300;BME280;10809;49.476;11.016;2023-08-30T10:47:37;97528.88;;;18.95;64.04
21300;BME280;10809;49.476;11.016;2023-08-30T10:50:11;97529.78;;;19.04;64.09
21300;BME280;10809;49.476;11.016;2023-08-30T10:52:43;97518.81;;;19.15;64.19
21300;BME280;10809;49.476;11.016;2023-08-30T10:55:15;97518.53;;;19.26;64.15
21300;BME280;10809;49.476;11.016;2023-08-30T10:57:45;97521.66;;;19.39;63.62
21300;BME280;10809;49.476;11.016;2023-08-30T11:00:22;97512.47;;;19.49;63.41
21300;BME280;10809;49.476;11.016;2023-08-30T11:02:53;97524.13;;;19.58;63.21
21300;BME280;10809;49.476;11.016;2023-08-30T11:05:26;97517.78;;;19.67;62.99
21300;BME280;10809;49.476;11.016;2023-08-30T11:07:56;97496.50;;;19.73;62.54
21300;BME280;10809;49.476;11.016;2023-08-30T11:10:27;97499.38;;;19.80;62.49
21300;BME280;10809;49.476;11.016;2023-08-30T11:13:01;97497.88;;;19.86;62.36
21300;BME280;10809;49.476;11.016;2023-08-30T11:15:31;97494.53;;;19.92;61.88
21300;BME280;10809;49.476;11.016;2023-08-30T11:18:02;97493.38;;;19.94;61.74
21300;BME280;10809;49.476;11.016;2023-08-30T11:20:33;97495.91;;;19.96;61.29
21300;BME280;10809;49.476;11.016;2023-08-30T11:23:07;97488.69;;;19.96;61.34
21300;BME280;10809;49.476;11.016;2023-08-30T11:25:39;97485.31;;;19.94;61.36
21300;BME280;10809;49.476;11.016;2023-08-30T11:28:10;97487.34;;;19.92;60.79
21300;BME280;10809;49.476;11.016;2023-08-30T11:30:40;97484.97;;;19.89;60.68
21300;BME280;10809;49.476;11.016;2023-08-30T11:33:10;97490.00;;;19.84;60.34
21300;BME280;10809;49.476;11.016;2023-08-30T11:35:41;97486.94;;;19.79;60.47
21300;BME280;10809;49.476;11.016;2023-08-30T11:38:13;97491.13;;;19.73;60.46
21300;BME280;10809;49.476;11.016;2023-08-30T11:40:45;97481.88;;;19.68;60.37
21300;BME280;10809;49.476;11.016;2023-08-30T11:43:16;97490.59;;;19.62;60.13
21300;BME280;10809;49.476;11.016;2023-08-30T11:45:46;97489.38;;;19.56;60.34
21300;BME280;10809;49.476;11.016;2023-08-30T11:48:17;97484.63;;;19.50;60.30
21300;BME280;10809;49.476;11.016;2023-08-30T11:50:47;97484.25;;;19.45;60.35
21300;BME280;10809;49.476;11.016;2023-08-30T11:53:18;97483.91;;;19.40;60.23
21300;BME280;10809;49.476;11.016;2023-08-30T11:55:48;97489.75;;;19.36;60.19
21300;BME280;10809;49.476;11.016;2023-08-30T11:58:19;97491.03;;;19.32;59.85
21300;BME280;10809;49.476;11.016;2023-08-30T12:00:50;97487.16;;;19.26;60.17
21300;BME280;10809;49.476;11.016;2023-08-30T12:03:21;97495.69;;;19.22;59.91
21300;BME280;10809;49.476;11.016;2023-08-30T12:05:52;97490.97;;;19.16;60.03
21300;BME280;10809;49.476;11.016;2023-08-30T12:08:30;97487.91;;;19.11;60.18
21300;BME280;10809;49.476;11.016;2023-08-30T12:11:16;97490.22;;;19.06;59.89
21300;BME280;10809;49.476;11.016;2023-08-30T12:13:47;97490.84;;;19.00;60.03
21300;BME280;10809;49.476;11.016;2023-08-30T12:16:18;97486.09;;;18.94;60.13
21300;BME280;10809;49.476;11.016;2023-08-30T12:18:48;97482.75;;;18.92;60.15
21300;BME280;10809;49.476;11.016;2023-08-30T12:21:19;97481.38;;;18.88;60.62
21300;BME280;10809;49.476;11.016;2023-08-30T12:23:59;97479.84;;;18.85;60.59
21300;BME280;10809;49.476;11.016;2023-08-30T12:26:33;97481.53;;;18.86;60.64
21300;BME280;10809;49.476;11.016;2023-08-30T12:29:10;97478.03;;;18.86;60.73
21300;BME280;10809;49.476;11.016;2023-08-30T12:31:40;97484.03;;;18.88;60.62
21300;BME280;10809;49.476;11.016;2023-08-30T12:34:11;97477.72;;;18.89;60.74
21300;BME280;10809;49.476;11.016;2023-08-30T12:36:41;97477.38;;;18.92;60.58
21300;BME280;10809;49.476;11.016;2023-08-30T12:39:12;97470.00;;;18.94;61.01
21300;BME280;10809;49.476;11.016;2023-08-30T12:41:42;97478.75;;;18.96;60.67
21300;BME280;10809;49.476;11.016;2023-08-30T12:44:13;97474.22;;;18.96;60.49
21300;BME280;10809;49.476;11.016;2023-08-30T12:46:43;97473.91;;;18.99;60.34
21300;BME280;10809;49.476;11.016;2023-08-30T12:49:14;97475.75;;;18.99;60.14
21300;BME280;10809;49.476;11.016;2023-08-30T12:51:45;97470.22;;;19.00;60.22
21300;BME280;10809;49.476;11.016;2023-08-30T12:54:15;97462.19;;;19.00;60.21
21300;BME280;10809;49.476;11.016;2023-08-30T12:56:46;97464.00;;;19.00;60.18
21300;BME280;10809;49.476;11.016;2023-08-30T12:59:22;97462.19;;;19.00;60.08
21300;BME280;10809;49.476;11.016;2023-08-30T13:01:53;97464.00;;;19.00;59.80
21300;BME280;10809;49.476;11.016;2023-08-30T13:04:23;97460.50;;;18.99;59.85
21300;BME280;10809;49.476;11.016;2023-08-30T13:06:53;97463.19;;;18.99;59.99
21300;BME280;10809;49.476;11.016;2023-08-30T13:09:24;97464.00;;;19.00;60.16
21300;BME280;10809;49.476;11.016;2023-08-30T13:11:57;97464.00;;;19.00;60.07
21300;BME280;10809;49.476;11.016;2023-08-30T13:14:28;97462.19;;;19.00;59.84
21300;BME280;10809;49.476;11.016;2023-08-30T13:17:05;97461.16;;;19.01;59.92
21300;BME280;10809;49.476;11.016;2023-08-30T13:19:35;97458.31;;;19.03;60.06
21300;BME280;10809;49.476;11.016;2023-08-30T13:22:05;97455.47;;;19.04;60.04
21300;BME280;10809;49.476;11.016;2023-08-30T13:24:36;97455.16;;;19.07;60.04
21300;BME280;10809;49.476;11.016;2023-08-30T13:27:07;97455.38;;;19.14;60.08